Time;durP1;ratioP1;P1;durP2;ratioP2;P2;SDS_P1;SDS_P2;PMS_P1;PMS_P2;Temp;Humidity;BMP_temperature;BMP_pressure;BME280_temperature;BME280_humidity;BME280_pressure;Samples;Min_cycle;Max_cycle;Signal;HPM_P1;HPM_P2
2021/10/04 00:00:42;;;;;;;12.75;3.03;;;11.60;99.90;;;;;;6118455;23;20021;-80
2021/10/04 00:03:50;;;;;;;21.85;5.68;;;11.60;99.90;;;;;;6118180;23;20018;-81
2021/10/04 00:06:23;;;;;;;19.10;5.55;;;11.60;99.90;;;;;;6154260;23;20564;-78
2021/10/04 00:08:52;;;;;;;11.57;3.80;;;11.50;99.90;;;;;;6092995;23;20026;-79
2021/10/04 00:11:20;;;;;;;17.20;4.80;;;11.60;99.90;;;;;;6144547;23;20021;-81
2021/10/04 00:13:49;;;;;;;24.75;3.42;;;11.50;99.90;;;;;;6118589;23;20013;-80
2021/10/04 00:16:19;;;;;;;18.95;3.60;;;11.60;99.90;;;;;;6117815;23;20029;-80
2021/10/04 00:18:49;;;;;;;25.88;4.70;;;11.60;99.90;;;;;;6143253;23;20028;-82
2021/10/04 00:21:18;;;;;;;15.70;4.20;;;11.50;99.90;;;;;;6142786;23;20018;-79
2021/10/04 00:23:50;;;;;;;14.10;4.07;;;11.50;99.90;;;;;;6142641;23;20021;-82
2021/10/04 00:26:19;;;;;;;15.02;4.10;;;11.60;99.90;;;;;;6171469;23;20024;-79
2021/10/04 00:28:50;;;;;;;11.70;3.50;;;11.60;99.90;;;;;;6146958;23;20026;-82
2021/10/04 00:31:33;;;;;;;32.25;5.78;;;11.60;99.90;;;;;;6180251;23;20017;-81
2021/10/04 00:34:22;;;;;;;20.20;5.03;;;11.60;99.90;;;;;;6180594;23;20021;-81
2021/10/04 00:37:21;;;;;;;10.57;4.15;;;11.70;99.90;;;;;;6157363;23;20017;-82
2021/10/04 00:39:53;;;;;;;26.48;5.75;;;11.80;99.90;;;;;;6178852;23;20020;-81
2021/10/04 00:42:23;;;;;;;19.30;4.65;;;11.60;99.90;;;;;;6143830;23;20402;-81
2021/10/04 00:45:22;;;;;;;;;;;;;;;;;;;;;
2021/10/04 00:48:40;;;;;;;23.05;8.15;;;10.80;99.90;;;;;;6167705;23;20031;-80
2021/10/04 00:51:12;;;;;;;15.88;3.20;;;11.70;99.90;;;;;;6129261;23;20071;-80
2021/10/04 00:54:03;;;;;;;19.25;4.53;;;11.60;99.90;;;;;;6178478;23;20014;-81
2021/10/04 00:56:34;;;;;;;27.80;6.38;;;11.70;99.90;;;;;;6118902;23;20031;-82
2021/10/04 00:59:02;;;;;;;16.50;5.50;;;11.60;99.90;;;;;;6143712;23;20017;-79
2021/10/04 01:01:36;;;;;;;20.45;6.07;;;11.70;99.90;;;;;;6118584;23;20035;-81
2021/10/04 01:04:10;;;;;;;27.15;4.68;;;11.70;99.90;;;;;;6119093;23;20021;-82
2021/10/04 01:10:39;;;;;;;;;;;;;;;;;;;;;
2021/10/04 01:13:12;;;;;;;22.13;4.65;;;11.80;99.90;;;;;;6103327;23;20026;-81
2021/10/04 01:16:21;;;;;;;19.05;4.95;;;11.90;99.90;;;;;;6144454;23;20010;-82
2021/10/04 01:19:48;;;;;;;28.42;4.93;;;12.00;99.90;;;;;;6116491;23;20044;-82
2021/10/04 01:22:20;;;;;;;24.75;6.72;;;12.10;99.90;;;;;;6090256;23;20018;-81
2021/10/04 01:24:59;;;;;;;20.42;4.07;;;12.20;99.90;;;;;;6112181;23;20251;-82
2021/10/04 01:27:55;;;;;;;17.73;3.95;;;12.20;99.90;;;;;;6123897;23;20014;-83
2021/10/04 01:31:34;;;;;;;;;;;;;;;;;;;;;
2021/10/04 01:34:19;;;;;;;19.58;5.28;;;12.40;99.90;;;;;;6135961;23;20028;-83
2021/10/04 01:40:22;;;;;;;20.83;5.40;;;11.20;99.90;;;;;;6116857;23;20029;-81
2021/10/04 01:43:04;;;;;;;13.20;3.75;;;12.40;99.90;;;;;;6066406;23;20030;-82
2021/10/04 01:46:17;;;;;;;14.40;3.70;;;12.30;99.90;;;;;;6116791;23;20032;-80
2021/10/04 01:49:33;;;;;;;23.20;4.75;;;12.50;99.90;;;;;;6124504;23;20024;-83
2021/10/04 01:53:08;;;;;;;17.73;5.15;;;12.50;99.90;;;;;;6138683;23;20048;-82
2021/10/04 01:55:51;;;;;;;23.13;4.03;;;12.70;99.90;;;;;;6129758;23;20006;-84
2021/10/04 01:58:32;;;;;;;25.30;5.93;;;12.60;99.90;;;;;;6128788;23;20017;-83
2021/10/04 02:01:35;;;;;;;19.30;3.92;;;12.60;99.90;;;;;;6096161;23;20025;-83
2021/10/04 02:04:46;;;;;;;20.60;5.80;;;12.70;99.90;;;;;;6151268;23;20424;-83
2021/10/04 02:07:38;;;;;;;24.60;4.85;;;12.70;99.90;;;;;;6142017;23;20040;-83
2021/10/04 02:10:47;;;;;;;20.17;4.18;;;12.60;99.90;;;;;;6090216;23;20026;-80
2021/10/04 02:13:40;;;;;;;19.73;4.93;;;12.60;99.90;;;;;;6117233;23;20494;-79
2021/10/04 02:16:19;;;;;;;32.38;5.63;;;12.70;99.90;;;;;;6114142;23;20022;-81
2021/10/04 02:19:09;;;;;;;23.80;4.53;;;12.50;99.90;;;;;;6139652;23;20018;-80
2021/10/04 02:22:28;;;;;;;;;;;;;;;;;;;;;
2021/10/04 02:29:08;;;;;;;49.42;5.03;;;12.30;99.90;;;;;;6118390;23;20025;-82
2021/10/04 02:32:12;;;;;;;;;;;;;;;;;;;;;
2021/10/04 02:35:35;;;;;;;21.58;3.70;;;12.20;99.90;;;;;;6062674;23;20027;-80
2021/10/04 02:38:06;;;;;;;23.80;5.72;;;12.20;99.90;;;;;;6054066;23;20022;-80
2021/10/04 02:40:56;;;;;;;14.73;3.58;;;12.10;99.90;;;;;;6029399;23;20019;-79
2021/10/04 02:43:25;;;;;;;13.80;3.92;;;12.10;99.90;;;;;;6052778;23;20038;-81
2021/10/04 02:46:42;;;;;;;23.60;3.75;;;12.10;99.90;;;;;;6053645;23;20489;-83
2021/10/04 02:49:22;;;;;;;23.13;3.53;;;12.00;99.90;;;;;;6061709;23;20043;-80
2021/10/04 02:52:09;;;;;;;;;;;;;;;;;;;;;
2021/10/04 02:54:56;;;;;;;21.40;4.00;;;12.00;99.90;;;;;;6032420;23;20023;-83
2021/10/04 02:57:43;;;;;;;31.70;6.03;;;12.00;99.90;;;;;;6064074;23;20067;-83
2021/10/04 03:01:06;;;;;;;21.55;4.78;;;11.90;99.90;;;;;;6048492;23;20022;-83
2021/10/04 03:03:57;;;;;;;20.98;3.53;;;11.90;99.90;;;;;;6065488;23;20026;-81
2021/10/04 03:07:03;;;;;;;;;;;;;;;;;;;;;
2021/10/04 03:10:46;;;;;;;22.30;4.85;;;11.80;99.90;;;;;;6051537;23;20024;-81
2021/10/04 03:13:30;;;;;;;15.65;4.53;;;11.70;99.90;;;;;;6029853;23;20387;-81
2021/10/04 03:16:36;;;;;;;16.50;4.70;;;11.80;99.90;;;;;;5887020;24;20028;-81
2021/10/04 03:19:20;;;;;;;16.85;3.50;;;11.90;99.90;;;;;;5885326;24;20029;-80
2021/10/04 03:21:48;;;;;;;17.42;5.03;;;11.80;99.90;;;;;;5910247;24;20026;-80
2021/10/04 03:25:12;;;;;;;16.65;4.25;;;11.80;99.90;;;;;;5905530;24;20025;-80
2021/10/04 03:28:22;;;;;;;;;;;;;;;;;;;;;
2021/10/04 03:30:59;;;;;;;23.08;5.47;;;11.90;99.90;;;;;;5891902;24;20040;-81
2021/10/04 03:33:27;;;;;;;22.55;4.22;;;11.80;99.90;;;;;;5991984;24;20035;-80
2021/10/04 03:37:04;;;;;;;;;;;;;;;;;;;;;
2021/10/04 03:39:56;;;;;;;14.68;3.70;;;12.00;99.90;;;;;;6112365;23;20033;-80
2021/10/04 03:43:38;;;;;;;22.63;5.47;;;12.00;99.90;;;;;;6088998;23;20663;-82
2021/10/04 03:46:16;;;;;;;24.85;4.32;;;11.30;99.90;;;;;;6087823;23;20025;-79
2021/10/04 03:48:55;;;;;;;15.98;6.10;;;12.10;99.90;;;;;;6111649;23;20030;-81
2021/10/04 03:51:33;;;;;;;17.90;3.50;;;13.20;99.90;;;;;;6110825;23;20018;-80
2021/10/04 03:54:31;;;;;;;7.78;3.05;;;12.10;99.90;;;;;;6088732;23;20032;-79
2021/10/04 03:57:04;;;;;;;12.98;3.90;;;12.10;99.90;;;;;;6109966;23;20016;-82
2021/10/04 03:59:34;;;;;;;32.15;4.88;;;12.20;99.90;;;;;;6111335;23;20030;-80
2021/10/04 04:02:17;;;;;;;;;;;;;;;;;;;;;
2021/10/04 04:04:53;;;;;;;8.40;2.20;;;10.70;99.90;;;;;;6087482;23;20017;-78
2021/10/04 04:07:27;;;;;;;7.90;2.15;;;12.00;99.90;;;;;;6114498;23;20024;-80
2021/10/04 04:10:12;;;;;;;12.30;2.33;;;12.00;99.90;;;;;;6118213;23;20026;-80
2021/10/04 04:12:44;;;;;;;9.85;2.35;;;12.00;99.90;;;;;;6153707;23;20020;-80
2021/10/04 04:15:20;;;;;;;8.75;2.25;;;12.00;99.90;;;;;;6171671;23;20018;-80
2021/10/04 04:17:57;;;;;;;9.57;2.22;;;12.60;99.90;;;;;;6180552;23;20018;-81
2021/10/04 04:20:34;;;;;;;11.20;2.17;;;11.70;99.90;;;;;;6131786;23;20025;-81
2021/10/04 04:23:04;;;;;;;12.93;2.30;;;11.90;99.90;;;;;;6119282;23;20489;-82
2021/10/04 04:25:55;;;;;;;7.32;1.83;;;11.80;99.90;;;;;;6155151;23;20020;-82
2021/10/04 04:28:27;;;;;;;7.47;1.70;;;11.80;99.90;;;;;;6118831;23;20021;-81
2021/10/04 04:34:06;;;;;;;10.75;1.60;;;11.80;99.90;;;;;;6136631;23;20281;-80
2021/10/04 04:37:18;;;;;;;2.33;1.50;;;11.80;99.90;;;;;;6128432;23;20039;-82
2021/10/04 04:39:47;;;;;;;3.30;1.70;;;11.70;99.90;;;;;;6179778;23;20017;-83
2021/10/04 04:42:16;;;;;;;2.50;1.35;;;11.70;99.90;;;;;;6143458;23;20017;-79
2021/10/04 04:44:46;;;;;;;5.20;1.63;;;11.30;99.90;;;;;;6180483;23;20231;-81
2021/10/04 04:47:24;;;;;;;4.60;1.20;;;11.60;99.90;;;;;;6120127;23;20017;-78
2021/10/04 04:49:53;;;;;;;1.77;1.27;;;11.60;99.90;;;;;;6115326;23;20025;-78
2021/10/04 04:52:23;;;;;;;2.50;1.20;;;11.60;99.90;;;;;;6140722;23;20032;-82
2021/10/04 04:55:00;;;;;;;3.42;1.75;;;11.60;99.90;;;;;;6127992;23;20021;-79
2021/10/04 04:57:55;;;;;;;3.72;1.10;;;11.50;99.90;;;;;;6120042;23;20029;-79
2021/10/04 05:00:34;;;;;;;3.08;1.58;;;11.50;99.90;;;;;;6117414;23;20074;-82
2021/10/04 05:03:23;;;;;;;;;;;;;;;;;;;;;
2021/10/04 05:06:06;;;;;;;2.25;1.10;;;11.50;99.90;;;;;;6150456;23;20017;-80
2021/10/04 05:08:37;;;;;;;3.90;1.20;;;11.50;99.90;;;;;;6142839;23;20018;-80
2021/10/04 05:11:13;;;;;;;6.35;1.30;;;11.40;99.90;;;;;;6115178;23;20014;-78
2021/10/04 05:13:43;;;;;;;6.43;1.70;;;11.40;99.90;;;;;;6142211;23;20017;-80
2021/10/04 05:16:17;;;;;;;4.05;1.75;;;11.40;99.90;;;;;;6169094;23;20020;-80
2021/10/04 05:18:48;;;;;;;10.35;2.47;;;11.40;99.90;;;;;;6166815;23;20031;-82
2021/10/04 05:21:19;;;;;;;3.05;1.50;;;11.40;99.90;;;;;;6150225;23;20021;-79
2021/10/04 05:24:07;;;;;;;4.38;1.70;;;11.40;99.90;;;;;;6165805;23;20024;-79
2021/10/04 05:26:40;;;;;;;12.73;1.45;;;11.50;99.90;;;;;;6140596;23;20028;-79
2021/10/04 05:29:10;;;;;;;10.55;2.38;;;10.90;99.90;;;;;;6140799;23;20017;-78
2021/10/04 05:32:03;;;;;;;4.32;1.58;;;10.40;99.90;;;;;;6116096;23;20022;-80
2021/10/04 05:34:46;;;;;;;3.55;1.52;;;11.40;99.90;;;;;;6110665;23;20024;-79
2021/10/04 05:37:14;;;;;;;4.50;2.17;;;11.40;99.90;;;;;;6150688;23;20017;-80
2021/10/04 05:39:46;;;;;;;13.20;2.60;;;11.30;99.90;;;;;;6177400;23;20017;-80
2021/10/04 05:42:20;;;;;;;3.83;2.13;;;11.30;99.90;;;;;;6115735;23;20029;-80
2021/10/04 05:45:15;;;;;;;9.98;1.85;;;11.80;99.90;;;;;;6115907;23;20017;-80
2021/10/04 05:47:44;;;;;;;7.47;1.83;;;11.30;99.90;;;;;;6149891;23;20336;-77
2021/10/04 05:50:13;;;;;;;5.20;1.42;;;11.30;99.90;;;;;;6114906;23;20028;-80
2021/10/04 05:52:52;;;;;;;5.00;2.95;;;11.20;99.90;;;;;;6177029;23;20017;-81
2021/10/04 05:55:49;;;;;;;5.25;1.90;;;11.30;99.90;;;;;;6140263;23;20029;-81
2021/10/04 05:58:39;;;;;;;4.63;1.50;;;11.30;99.90;;;;;;6142896;23;20013;-81
2021/10/04 06:01:17;;;;;;;4.18;1.65;;;11.20;99.90;;;;;;6178166;23;20407;-80
2021/10/04 06:03:55;;;;;;;4.15;1.77;;;11.20;99.90;;;;;;6167057;23;20013;-77
2021/10/04 06:06:31;;;;;;;2.95;1.10;;;12.00;99.90;;;;;;6140546;23;20035;-81
2021/10/04 06:09:23;;;;;;;4.32;1.70;;;11.00;99.90;;;;;;6122466;23;20129;-80
2021/10/04 06:12:24;;;;;;;7.95;1.63;;;11.00;99.90;;;;;;6172112;23;20025;-80
2021/10/04 06:14:51;;;;;;;10.00;1.80;;;11.10;99.90;;;;;;6139198;23;20039;-79
2021/10/04 06:17:31;;;;;;;10.02;1.38;;;11.00;99.90;;;;;;6125437;23;20031;-80
2021/10/04 06:20:01;;;;;;;8.48;1.42;;;11.00;99.90;;;;;;6142064;23;20021;-78
2021/10/04 06:22:40;;;;;;;14.40;3.42;;;11.00;99.90;;;;;;6130538;23;20021;-77
2021/10/04 06:25:12;;;;;;;9.05;2.95;;;11.00;99.90;;;;;;6140033;23;20022;-78
2021/10/04 06:27:44;;;;;;;8.55;1.83;;;11.10;99.90;;;;;;6175942;23;20039;-82
2021/10/04 06:30:28;;;;;;;4.40;1.55;;;11.10;99.90;;;;;;6128522;23;20043;-82
2021/10/04 06:32:58;;;;;;;4.07;2.88;;;11.10;99.90;;;;;;6151147;23;20013;-80
2021/10/04 06:35:30;;;;;;;6.00;1.67;;;11.10;99.90;;;;;;6113659;23;20032;-80
2021/10/04 06:37:58;;;;;;;6.13;1.25;;;11.10;99.90;;;;;;6114611;23;20036;-76
2021/10/04 06:40:30;;;;;;;4.32;1.50;;;10.00;99.90;;;;;;6150169;23;20024;-81
2021/10/04 06:43:03;;;;;;;4.47;1.75;;;11.00;99.90;;;;;;6150515;23;20359;-84
2021/10/04 06:45:32;;;;;;;5.88;1.42;;;9.70;99.90;;;;;;6151009;23;20020;-82
2021/10/04 06:48:27;;;;;;;6.40;1.55;;;11.10;99.90;;;;;;6121173;23;20077;-82
2021/10/04 06:50:59;;;;;;;5.18;1.48;;;11.10;99.90;;;;;;6114053;23;20031;-80
2021/10/04 06:53:28;;;;;;;6.97;1.55;;;11.00;99.90;;;;;;6150623;23;20014;-80
2021/10/04 06:56:00;;;;;;;6.28;1.48;;;11.10;99.90;;;;;;6116291;23;20025;-80
2021/10/04 06:58:34;;;;;;;36.20;7.07;;;11.10;99.90;;;;;;6139864;23;20024;-83
2021/10/04 07:01:03;;;;;;;10.52;2.88;;;11.10;99.90;;;;;;6176307;23;20017;-81
2021/10/04 07:03:32;;;;;;;3.70;1.25;;;11.00;99.90;;;;;;6140493;23;20028;-86
2021/10/04 07:06:06;;;;;;;10.13;3.25;;;11.10;99.90;;;;;;6125660;23;20013;-83
2021/10/04 07:08:48;;;;;;;2.67;1.25;;;11.10;99.90;;;;;;6115500;23;20021;-83
2021/10/04 07:11:26;;;;;;;7.95;2.17;;;11.00;99.90;;;;;;6116254;23;20025;-82
2021/10/04 07:13:59;;;;;;;5.07;1.52;;;11.10;99.90;;;;;;6151767;23;20022;-81
2021/10/04 07:16:27;;;;;;;1.48;1.35;;;11.00;99.90;;;;;;6150223;23;20010;-81
2021/10/04 07:19:04;;;;;;;5.90;1.45;;;11.00;99.90;;;;;;6129250;23;20035;-84
2021/10/04 07:21:32;;;;;;;6.43;1.75;;;11.00;99.90;;;;;;6115075;23;20018;-80
2021/10/04 07:24:01;;;;;;;7.60;1.50;;;11.10;99.90;;;;;;6177845;23;20014;-81
2021/10/04 07:26:32;;;;;;;5.43;1.50;;;11.20;99.90;;;;;;6141793;23;20576;-82
2021/10/04 07:29:07;;;;;;;2.35;1.92;;;11.10;99.90;;;;;;6117255;23;20036;-80
2021/10/04 07:31:47;;;;;;;7.07;1.45;;;11.20;99.90;;;;;;6140666;23;20025;-80
2021/10/04 07:34:20;;;;;;;4.80;1.27;;;11.20;99.90;;;;;;6116471;23;20032;-81
2021/10/04 07:36:51;;;;;;;6.90;1.55;;;10.20;99.90;;;;;;6148547;23;20262;-84
2021/10/04 07:40:18;;;;;;;4.13;1.63;;;11.30;99.90;;;;;;6134412;23;20029;-84
2021/10/04 07:42:49;;;;;;;2.65;1.25;;;12.60;99.90;;;;;;6150471;23;20426;-82
2021/10/04 07:45:32;;;;;;;10.43;1.80;;;11.40;99.90;;;;;;6150487;23;20024;-84
2021/10/04 07:48:04;;;;;;;3.60;1.45;;;11.30;99.90;;;;;;6116825;23;20027;-80
2021/10/04 07:50:37;;;;;;;4.60;1.38;;;11.70;99.90;;;;;;6150667;23;20018;-81
2021/10/04 07:53:16;;;;;;;5.07;2.20;;;11.60;99.90;;;;;;6169111;23;20009;-82
2021/10/04 07:56:02;;;;;;;2.13;1.10;;;11.60;99.90;;;;;;6143409;23;20025;-83
2021/10/04 07:58:31;;;;;;;6.75;3.55;;;11.70;99.90;;;;;;6139755;23;20334;-82
2021/10/04 08:01:03;;;;;;;8.25;1.15;;;11.70;99.90;;;;;;6119347;23;20047;-82
2021/10/04 08:03:35;;;;;;;5.75;3.35;;;11.80;99.90;;;;;;6118452;23;20018;-83
2021/10/04 08:06:26;;;;;;;7.57;2.60;;;11.80;99.90;;;;;;6142605;23;20021;-81
2021/10/04 08:09:15;;;;;;;5.45;1.42;;;11.90;99.90;;;;;;6146077;23;20017;-84
2021/10/04 08:11:43;;;;;;;6.10;2.45;;;12.00;99.90;;;;;;6094199;23;20021;-83
2021/10/04 08:14:14;;;;;;;9.93;2.23;;;12.00;99.90;;;;;;6141442;23;20022;-80
2021/10/04 08:16:46;;;;;;;6.43;1.73;;;11.20;99.90;;;;;;6178462;23;20255;-81
2021/10/04 08:19:19;;;;;;;7.22;1.33;;;12.10;99.90;;;;;;6178067;23;20035;-82
2021/10/04 08:22:02;;;;;;;5.55;1.70;;;12.20;99.90;;;;;;6140942;23;20022;-82
2021/10/04 08:24:36;;;;;;;5.68;1.70;;;12.30;99.90;;;;;;6143111;23;20274;-82
2021/10/04 08:27:11;;;;;;;5.43;1.40;;;12.30;99.90;;;;;;6104942;23;20018;-81
2021/10/04 08:29:49;;;;;;;3.85;1.80;;;12.40;99.90;;;;;;6116795;23;20021;-87
2021/10/04 08:32:36;;;;;;;4.68;1.58;;;11.40;99.90;;;;;;6157606;23;20169;-85
2021/10/04 08:35:05;;;;;;;7.15;1.70;;;12.50;99.90;;;;;;6117731;23;20025;-82
2021/10/04 08:37:35;;;;;;;6.00;1.60;;;12.60;99.90;;;;;;6140374;23;20037;-81
2021/10/04 08:40:08;;;;;;;3.13;1.70;;;12.60;99.90;;;;;;6116760;23;20538;-83
2021/10/04 08:42:38;;;;;;;20.10;2.53;;;12.60;99.90;;;;;;6141616;23;20014;-82
2021/10/04 08:45:19;;;;;;;11.30;2.88;;;12.60;99.90;;;;;;6145429;23;20018;-87
2021/10/04 08:47:52;;;;;;;;;;;12.60;99.90;;;;;;6147525;23;20017;-83
2021/10/04 08:50:32;;;;;;;9.90;1.60;;;12.60;99.90;;;;;;6142471;23;19920;-84
2021/10/04 08:53:05;;;;;;;7.53;1.98;;;12.30;99.90;;;;;;6170519;23;20022;-82
2021/10/04 08:55:46;;;;;;;12.82;1.90;;;12.80;99.90;;;;;;6096667;23;20014;-82
2021/10/04 08:58:32;;;;;;;10.45;2.33;;;12.80;99.90;;;;;;6167628;23;20028;-82
2021/10/04 09:01:09;;;;;;;8.05;2.65;;;12.60;99.90;;;;;;6117078;23;20017;-81
2021/10/04 09:04:02;;;;;;;8.27;1.85;;;13.00;99.90;;;;;;6158082;23;20014;-82
2021/10/04 09:06:38;;;;;;;4.57;1.65;;;13.10;99.90;;;;;;6178682;23;20018;-81
2021/10/04 09:09:11;;;;;;;11.43;2.58;;;13.20;99.90;;;;;;6173056;23;20020;-81
2021/10/04 09:11:48;;;;;;;7.30;2.10;;;13.20;99.90;;;;;;6143783;23;20033;-82
2021/10/04 09:14:35;;;;;;;11.40;3.85;;;13.40;99.90;;;;;;6147479;23;20029;-82
2021/10/04 09:17:13;;;;;;;11.48;1.83;;;13.40;99.90;;;;;;6111216;23;20018;-82
2021/10/04 09:19:44;;;;;;;10.35;1.88;;;13.20;99.90;;;;;;6122372;23;20028;-82
2021/10/04 09:22:24;;;;;;;10.18;3.13;;;13.50;99.90;;;;;;6147895;23;20018;-83
2021/10/04 09:24:59;;;;;;;14.75;2.95;;;13.70;99.90;;;;;;6122310;23;20018;-84
2021/10/04 09:27:33;;;;;;;10.88;2.75;;;13.90;99.90;;;;;;6134729;23;20041;-82
2021/10/04 09:30:10;;;;;;;8.27;2.35;;;15.10;99.90;;;;;;6146256;23;20028;-82
2021/10/04 09:32:49;;;;;;;8.63;1.85;;;13.90;99.90;;;;;;6084463;23;20018;-81
2021/10/04 09:35:21;;;;;;;7.68;1.58;;;13.90;99.90;;;;;;6109313;23;20014;-81
2021/10/04 09:38:20;;;;;;;8.73;2.10;;;13.90;99.90;;;;;;6144914;23;20032;-80
2021/10/04 09:40:52;;;;;;;7.93;1.58;;;14.10;99.90;;;;;;6146983;23;20018;-81
2021/10/04 09:43:25;;;;;;;6.15;1.83;;;14.10;99.90;;;;;;6144750;23;20018;-84
2021/10/04 09:46:05;;;;;;;9.43;3.20;;;14.10;99.90;;;;;;6144654;23;20033;-80
2021/10/04 09:48:36;;;;;;;8.70;2.20;;;14.30;99.90;;;;;;6109624;23;20021;-80
2021/10/04 09:51:16;;;;;;;5.55;1.90;;;14.40;99.90;;;;;;6145051;23;20022;-83
2021/10/04 09:54:13;;;;;;;6.28;2.45;;;14.40;99.90;;;;;;6133508;23;20340;-82
2021/10/04 09:57:15;;;;;;;5.10;1.50;;;14.50;99.90;;;;;;6091577;23;20037;-83
2021/10/04 09:59:57;;;;;;;12.00;2.05;;;14.70;99.90;;;;;;6111582;23;20032;-81
2021/10/04 10:02:42;;;;;;;10.20;1.60;;;14.60;99.90;;;;;;6147030;23;20022;-82
2021/10/04 10:05:16;;;;;;;5.97;1.40;;;14.70;99.90;;;;;;6145502;23;20021;-81
2021/10/04 10:07:52;;;;;;;6.22;1.45;;;14.70;99.90;;;;;;6137872;23;20010;-80
2021/10/04 10:10:38;;;;;;;6.05;1.50;;;14.80;99.90;;;;;;6134204;23;20026;-81
2021/10/04 10:13:17;;;;;;;7.82;2.28;;;14.80;99.90;;;;;;6165347;23;20739;-85
2021/10/04 10:16:16;;;;;;;10.52;1.80;;;14.90;99.90;;;;;;6120936;23;20032;-86
2021/10/04 10:18:52;;;;;;;3.88;1.23;;;14.90;99.90;;;;;;6167627;23;20018;-82
2021/10/04 10:21:30;;;;;;;3.60;0.90;;;14.90;99.90;;;;;;6138730;23;20033;-82
2021/10/04 10:24:14;;;;;;;10.48;2.80;;;15.00;99.90;;;;;;6152434;23;20022;-84
2021/10/04 10:26:59;;;;;;;7.72;1.50;;;15.20;99.90;;;;;;6140282;23;20328;-82
2021/10/04 10:29:40;;;;;;;4.03;1.30;;;13.90;99.90;;;;;;6151184;23;20018;-84
2021/10/04 10:32:19;;;;;;;10.35;1.63;;;15.50;99.90;;;;;;6164609;23;20024;-82
2021/10/04 10:34:50;;;;;;;6.18;1.60;;;15.50;99.90;;;;;;6139916;23;20017;-84
2021/10/04 10:37:46;;;;;;;3.30;1.20;;;16.20;99.90;;;;;;6140081;23;20104;-82
2021/10/04 10:40:28;;;;;;;3.08;1.10;;;15.80;99.90;;;;;;6154920;23;20017;-81
2021/10/04 10:43:09;;;;;;;6.88;1.30;;;15.80;99.90;;;;;;6177595;23;20024;-81
2021/10/04 10:45:42;;;;;;;5.57;1.30;;;16.00;99.90;;;;;;6169485;23;20028;-79
2021/10/04 10:51:29;;;;;;;7.60;1.50;;;16.00;99.90;;;;;;6150840;23;20025;-79
2021/10/04 10:54:37;;;;;;;7.50;1.90;;;15.90;99.90;;;;;;6116803;23;20021;-81
2021/10/04 10:57:05;;;;;;;5.88;1.42;;;15.90;99.90;;;;;;6111489;23;20025;-80
2021/10/04 10:59:40;;;;;;;19.67;3.83;;;15.90;99.90;;;;;;6168320;23;20027;-80
2021/10/04 11:02:51;;;;;;;10.20;1.23;;;15.80;99.90;;;;;;6165134;23;20017;-83
2021/10/04 11:05:43;;;;;;;3.00;1.33;;;16.00;99.90;;;;;;6138753;23;20028;-84
2021/10/04 11:08:23;;;;;;;11.38;1.63;;;16.00;99.90;;;;;;6115287;23;20018;-82
2021/10/04 11:10:53;;;;;;;9.38;2.25;;;16.10;99.90;;;;;;6164431;23;20017;-81
2021/10/04 11:13:29;;;;;;;7.00;1.10;;;16.10;99.90;;;;;;6139954;23;20351;-82
2021/10/04 11:16:06;;;;;;;4.90;1.63;;;16.20;99.90;;;;;;6167777;23;20018;-82
2021/10/04 11:18:44;;;;;;;6.40;1.42;;;16.30;99.90;;;;;;6153150;23;20020;-80
2021/10/04 11:21:20;;;;;;;13.65;2.58;;;15.50;99.90;;;;;;6153340;23;20025;-81
2021/10/04 11:23:54;;;;;;;4.82;2.05;;;17.10;99.90;;;;;;6141685;23;20549;-79
2021/10/04 11:26:52;;;;;;;11.73;2.15;;;16.60;99.90;;;;;;6143342;23;20036;-82
2021/10/04 11:29:25;;;;;;;6.43;1.08;;;16.90;99.90;;;;;;6170789;23;20020;-84
2021/10/04 11:32:01;;;;;;;10.23;1.35;;;16.90;99.90;;;;;;6144745;23;20025;-81
2021/10/04 11:35:14;;;;;;;10.93;2.55;;;17.00;99.90;;;;;;6128867;23;20022;-79
2021/10/04 11:37:53;;;;;;;5.40;1.25;;;17.00;99.90;;;;;;6144443;23;20025;-85
2021/10/04 11:40:27;;;;;;;8.13;2.08;;;16.30;99.90;;;;;;6142181;23;20028;-83
2021/10/04 11:43:11;;;;;;;16.50;2.42;;;16.90;99.90;;;;;;6144195;23;20028;-82
2021/10/04 11:45:39;;;;;;;9.68;1.42;;;16.80;99.90;;;;;;6141636;23;20027;-82
2021/10/04 11:48:10;;;;;;;11.93;2.75;;;16.80;99.90;;;;;;6178921;23;20013;-82
2021/10/04 11:50:47;;;;;;;8.77;1.45;;;17.00;99.90;;;;;;6154253;23;20027;-84
2021/10/04 11:53:19;;;;;;;9.98;1.75;;;16.10;99.90;;;;;;6117644;23;20070;-83
2021/10/04 11:55:59;;;;;;;3.85;1.15;;;16.80;99.90;;;;;;6139995;23;20031;-79
2021/10/04 11:58:30;;;;;;;4.35;1.77;;;16.90;99.90;;;;;;6133492;23;20347;-77
2021/10/04 12:00:58;;;;;;;4.95;0.90;;;16.90;99.90;;;;;;6115784;23;20028;-78
2021/10/04 12:03:29;;;;;;;3.22;0.82;;;16.90;99.90;;;;;;6114891;23;20017;-79
2021/10/04 12:05:59;;;;;;;5.38;1.00;;;17.00;99.90;;;;;;6128041;23;20024;-79
2021/10/04 12:08:39;;;;;;;6.38;2.05;;;17.10;99.90;;;;;;6176749;23;20507;-81
2021/10/04 12:11:13;;;;;;;5.15;1.25;;;17.20;99.90;;;;;;6168772;23;20028;-76
2021/10/04 12:13:44;;;;;;;5.53;1.20;;;17.20;99.80;;;;;;6174607;23;20017;-79
2021/10/04 12:16:15;;;;;;;8.88;2.40;;;17.30;99.90;;;;;;6177710;23;20025;-76
2021/10/04 12:18:45;;;;;;;7.03;1.30;;;17.30;99.80;;;;;;6176776;23;20013;-77
2021/10/04 12:21:40;;;;;;;3.40;1.30;;;17.30;99.50;;;;;;6150584;23;20030;-78
2021/10/04 12:24:15;;;;;;;6.75;2.05;;;18.60;99.50;;;;;;6116447;23;20024;-77
2021/10/04 12:26:47;;;;;;;5.28;1.48;;;17.20;99.40;;;;;;6114072;23;20025;-82
2021/10/04 12:29:36;;;;;;;6.90;2.97;;;17.10;99.80;;;;;;6140931;23;20013;-78
2021/10/04 12:32:27;;;;;;;6.47;1.45;;;17.10;99.70;;;;;;6135839;23;20072;-78
2021/10/04 12:35:07;;;;;;;6.05;1.52;;;17.10;99.90;;;;;;6125901;23;20013;-78
2021/10/04 12:37:44;;;;;;;10.48;4.35;;;17.20;99.90;;;;;;6090878;23;20026;-79
2021/10/04 12:40:33;;;;;;;13.43;1.88;;;17.30;99.90;;;;;;6177346;23;20019;-79
2021/10/04 12:43:05;;;;;;;7.70;1.13;;;17.30;99.40;;;;;;6114292;23;20032;-77
2021/10/04 12:45:36;;;;;;;8.52;1.50;;;16.40;99.90;;;;;;6177134;23;20024;-80
2021/10/04 12:48:04;;;;;;;6.82;1.60;;;17.40;99.90;;;;;;6152416;23;20018;-79
2021/10/04 12:50:39;;;;;;;13.88;2.67;;;17.30;99.90;;;;;;6150747;23;20117;-79
2021/10/04 12:53:16;;;;;;;11.20;1.70;;;17.30;99.90;;;;;;6143765;23;20021;-79
2021/10/04 12:56:00;;;;;;;3.58;1.60;;;17.30;99.90;;;;;;6126255;23;20339;-77
2021/10/04 12:58:31;;;;;;;5.05;1.50;;;17.40;99.90;;;;;;6167311;23;20024;-81
2021/10/04 13:01:18;;;;;;;11.52;3.97;;;17.50;99.90;;;;;;6175376;23;20025;-79
2021/10/04 13:04:08;;;;;;;6.93;2.78;;;17.50;99.60;;;;;;6096184;23;20025;-78
2021/10/04 13:06:44;;;;;;;7.60;1.73;;;17.60;99.10;;;;;;6164376;23;20028;-76
2021/10/04 13:09:13;;;;;;;7.35;2.17;;;17.60;99.40;;;;;;6140931;23;20304;-76
2021/10/04 13:11:49;;;;;;;12.20;2.35;;;17.80;99.20;;;;;;6115243;23;20026;-78
2021/10/04 13:14:19;;;;;;;9.90;2.38;;;17.80;99.00;;;;;;6085706;23;20021;-78
2021/10/04 13:16:49;;;;;;;11.82;1.92;;;17.70;98.90;;;;;;6147317;23;20017;-78
2021/10/04 13:19:21;;;;;;;9.43;1.85;;;17.50;99.00;;;;;;6112717;23;20024;-82
2021/10/04 13:21:50;;;;;;;10.02;1.70;;;17.60;99.60;;;;;;6137589;23;20017;-79
2021/10/04 13:24:28;;;;;;;11.00;2.25;;;17.70;99.40;;;;;;6115228;23;20021;-86
2021/10/04 13:27:02;;;;;;;7.50;1.65;;;17.40;99.80;;;;;;6125913;23;20020;-83
2021/10/04 13:33:15;;;;;;;8.18;1.92;;;17.20;99.30;;;;;;6139366;23;20026;-81
2021/10/04 13:36:10;;;;;;;5.97;1.50;;;17.20;99.90;;;;;;6120222;23;20028;-83
2021/10/04 13:38:55;;;;;;;;;;;;;;;;;;;;;
2021/10/04 13:41:58;;;;;;;;;;;17.30;99.70;;;;;;6101039;23;20021;-85
2021/10/04 13:44:35;;;;;;;5.88;1.88;;;17.50;99.20;;;;;;6087892;23;19917;-79
2021/10/04 13:47:18;;;;;;;8.45;2.35;;;17.40;99.90;;;;;;6088973;23;20022;-85
2021/10/04 13:50:06;;;;;;;6.47;1.20;;;17.20;99.60;;;;;;6149119;23;20021;-82
2021/10/04 13:52:42;;;;;;;5.47;1.42;;;17.50;99.80;;;;;;6092081;23;20030;-79
2021/10/04 13:55:45;;;;;;;7.43;1.52;;;17.40;99.70;;;;;;6001665;23;20019;-83
2021/10/04 13:58:27;;;;;;;16.17;4.22;;;17.40;99.90;;;;;;6005165;24;20035;-82
2021/10/04 14:01:07;;;;;;;9.43;1.48;;;17.40;99.90;;;;;;6033648;23;20026;-82
2021/10/04 14:03:48;;;;;;;7.90;1.80;;;17.60;99.90;;;;;;5995518;23;20553;-81
2021/10/04 14:06:38;;;;;;;14.45;1.95;;;17.70;99.90;;;;;;6021236;23;20020;-84
2021/10/04 14:09:39;;;;;;;8.85;2.05;;;17.70;99.90;;;;;;6045590;23;20027;-83
2021/10/04 14:12:22;;;;;;;10.70;1.48;;;17.70;99.90;;;;;;6013896;23;20028;-84
2021/10/04 14:15:00;;;;;;;11.38;1.70;;;17.70;99.90;;;;;;6087360;23;20596;-85
2021/10/04 14:17:44;;;;;;;9.25;1.92;;;17.70;99.90;;;;;;6104171;23;20389;-81
2021/10/04 14:20:16;;;;;;;5.63;2.08;;;17.80;99.90;;;;;;6088046;23;20021;-81
2021/10/04 14:22:53;;;;;;;9.25;3.13;;;17.70;99.90;;;;;;6088377;23;20028;-86
2021/10/04 14:25:49;;;;;;;15.43;2.00;;;17.50;99.90;;;;;;6067094;23;20355;-82
2021/10/04 14:28:39;;;;;;;5.20;1.52;;;17.50;99.90;;;;;;6089563;23;20033;-78
2021/10/04 14:31:17;;;;;;;9.57;1.83;;;17.30;99.90;;;;;;6108372;23;20032;-84
2021/10/04 14:33:47;;;;;;;11.60;3.92;;;17.20;99.90;;;;;;6120057;23;20203;-80